Angelo Coast Range Reserve, California Weather observations

Data are for 10 minute period ending at time listed.
 Day   Time   Solar   Ave.   Ave.  Ave.  Vector  Max.   Baro.   Total    
  of    of     Rad.   Air    Rel.  Wind   Wind   Wind  Press.  Precip.   
Year   Day            Temp.  Hum.  Speed  Dir.   Gust                    
2016   (PST)  Kw/m2    F      %     mph   deg.    mph    mb.     in.     
-------------------------------------------------------------------------
 120   21:00   0.00   50.3    69    1.8   154     5.2   967.9    0.00 
 120   21:10   0.00   49.0    74    1.5   180     3.7   968.0    0.00 
 120   21:20   0.00   47.7    78    1.1    67     3.2   968.1    0.00 
 120   21:30   0.00   47.0    80    1.1   277     2.5   968.1    0.00 
 120   21:40   0.00   46.8    80    1.1   160     3.1   968.1    0.00 
 120   21:50   0.00   46.7    81    1.9   159     5.4   968.1    0.00 
 120   22:00   0.00   46.1    82    1.4   354     3.6   968.2    0.00 
 120   22:10   0.00   45.4    83    1.0    18     2.7   968.3    0.00 
 120   22:20   0.00   45.0    84    0.7   358     2.4   968.3    0.00 
 120   22:30   0.00   44.7    86    0.4    14     2.0   968.4    0.00 
 120   22:40   0.00   44.4    86    0.4   191     1.4   968.5    0.00 
 120   22:50   0.00   44.1    87    1.3   154     2.9   968.4    0.00 
 120   23:00   0.00   43.9    88    0.6    28     2.3   968.3    0.00 
 120   23:10   0.00   43.6    89    0.4   333     1.5   968.4    0.00 
 120   23:20   0.00   43.4    90    0.7   172     1.8   968.4    0.00 
 120   23:30   0.00   43.2    90    1.0   166     2.1   968.3    0.00 
 120   23:40   0.00   43.1    90    0.5   170     1.2   968.4    0.00 
 120   23:50   0.00   42.9    91    0.4   306     2.0   968.4    0.00 
 121    0:00   0.00   42.7    92    0.7   343     1.5   968.5    0.00 
 121    0:10   0.00   42.5    93    0.0   347     1.1   968.5    0.00 
 121    0:20   0.00   42.4    93    0.1   346     0.9   968.4    0.00 
 121    0:30   0.00   42.2    93    0.0   346     0.3   968.4    0.00 
 121    0:40   0.00   42.0    93    0.1   347     1.2   968.4    0.00 
 121    0:50   0.00   41.8    94    0.0   347     0.8   968.4    0.00 
 121    1:00   0.00   41.6    94    0.4   347     1.5   968.5    0.00 
 121    1:10   0.00   41.5    95    0.7   347     1.2   968.5    0.00 
 121    1:20   0.00   41.2    95    0.7   352     1.8   968.5    0.00 
 121    1:30   0.00   41.1    96    0.0   347     0.8   968.5    0.00 
 121    1:40   0.00   41.0    96    0.1   346     1.1   968.5    0.00 
 121    1:50   0.00   40.8    97    0.7    20     2.6   968.4    0.00 
 121    2:00   0.00   40.7    97    0.6   320     1.6   968.5    0.00 
 121    2:10   0.00   40.5    97    1.3     7     2.3   968.5    0.00 
 121    2:20   0.00   40.3    97    0.0   225     0.7   968.5    0.00 
 121    2:30   0.00   40.1    97    0.1   225     0.9   968.4    0.00 
 121    2:40   0.00   39.9    98    0.1   208     0.8   968.5    0.00 
 121    2:50   0.00   39.8    98    1.0   176     2.8   968.4    0.00 
 121    3:00   0.00   39.6    98    0.4   337     1.9   968.2    0.00 
 121    3:10   0.00   39.4    98    1.0   333     2.5   968.3    0.00 
 121    3:20   0.00   39.4    99    0.1   230     0.9   968.3    0.00 
 121    3:30   0.00   39.3    98    0.2   353     1.8   968.3    0.00 
 121    3:40   0.00   39.2    99    0.1   210     0.9   968.3    0.00 
 121    3:50   0.00   39.2    99    0.2   304     1.6   968.3    0.00 
 121    4:00   0.00   39.0    99    0.2   357     1.7   968.3    0.00 
 121    4:10   0.00   38.9    99    0.1     2     1.2   968.3    0.00 
 121    4:20   0.00   38.8    99    0.3   333     1.5   968.3    0.00 
 121    4:30   0.00   38.7    99    0.1   306     1.1   968.2    0.00 
 121    4:40   0.00   38.5    99    0.1   315     0.9   968.2    0.00 
 121    4:50   0.00   38.3    99    0.1   316     1.2   968.1    0.00 
 121    5:00   0.00   38.0    99    0.4   316     1.4   968.0    0.00 
 121    5:10   0.00   37.8    99    0.1   316     0.8   967.8    0.00 
 121    5:20   0.00   37.7    99    1.2   352     3.1   967.6    0.00 
 121    5:30   0.00   37.5    99    0.9   327     2.8   967.7    0.00 
 121    5:40   0.01   37.4   100    0.3   306     1.4   967.7    0.00 
 121    5:50   0.01   37.4    99    0.1   340     1.4   967.6    0.00 
 121    6:00   0.01   37.6   100    0.0     0     0.0   967.7    0.00 
 121    6:10   0.01   37.6   100    0.0   340     0.6   967.7    0.00 
 121    6:20   0.01   37.6    99    0.1   340     0.9   967.8    0.00 
 121    6:30   0.01   37.7   100    0.2   340     1.7   967.8    0.00 
 121    6:40   0.01   37.8   100    0.2   340     1.1   967.8    0.00 
 121    6:50   0.01   38.0   100    0.6   139     2.1   967.8    0.00 
 121    7:00   0.01   38.3    99    0.4   166     1.3   967.8    0.00 
 121    7:10   0.03   38.6    99    0.2   162     1.2   967.8    0.00 
 121    7:20   0.03   39.1    99    0.2   162     1.2   967.8    0.00 
 121    7:30   0.03   39.9    99    0.1   162     1.6   967.8    0.00 
 121    7:40   0.03   41.3    99    1.1    45     2.8   967.7    0.00 
 121    7:50   0.03   42.7    97    1.7    50     4.4   967.5    0.00 
 121    8:00   0.04   46.0    82    2.1    61     4.3   967.4    0.00 
 121    8:10   0.07   50.3    63    3.0    24    10.1   967.3    0.00 
 121    8:20   0.29   54.4    52    2.6   331     8.0   967.2    0.00 
 121    8:30   0.12   54.6    52    2.2    23     6.5   967.1    0.00 
 121    8:40   0.07   56.4    48    2.6    77     6.9   966.9    0.00 
 121    8:50   0.10   57.1    47    3.4   344     9.6   966.8    0.00 
 121    9:00   0.07   57.3    48    2.8   346    10.4   966.6    0.00 
 121    9:10   0.22   58.4    46    4.2   337    10.2   966.4    0.00 
 121    9:20   0.68   59.6    47    3.7   336     9.3   966.2    0.00 
 121    9:30   0.71   60.3    45    3.7   326     8.3   966.0    0.00 
 121    9:40   0.74   61.7    42    3.3   330     9.2   965.8    0.00 
 121    9:50   0.76   62.6    40    3.1   359     7.1   965.7    0.00 
 121   10:00   0.78   63.8    38    4.1   316    11.2   965.6    0.00 
 121   10:10   0.80   64.4    37    3.5   307     9.9   965.6    0.00 
 121   10:20   0.81   64.7    37    4.8   326    13.2   965.6    0.00 
 121   10:30   0.83   64.7    36    3.9   327    10.7   965.5    0.00 
 121   10:40   0.85   65.3    35    5.4   318    12.5   965.5    0.00 
 121   10:50   0.86   65.9    36    4.3   343    12.2   965.4    0.00 
 121   11:00   0.87   66.2    35    4.1    10     8.0   965.4    0.00 
 121   11:10   0.88   66.5    35    4.2   358     9.1   965.3    0.00 
 121   11:20   0.89   67.0    35    3.9   316    10.7   965.2    0.00 
 121   11:30   0.90   67.9    34    3.7   325     9.9   965.1    0.00 
 121   11:40   0.90   67.8    34    4.2   338    12.9   964.9    0.00 
 121   11:50   0.90   68.0    35    4.3    20    10.4   964.6    0.00 
 121   12:00   0.91   68.6    34    3.5    10    11.9   964.5    0.00 
 121   12:10   0.91   69.2    33    3.8    18    10.4   964.4    0.00 
 121   12:20   0.91   69.4    32    4.5   336    11.2   964.3    0.00 
 121   12:30   0.90   69.8    33    4.8   322    14.6   964.2    0.00 
 121   12:40   0.90   69.4    35    4.6   340    11.2   964.1    0.00 
 121   12:50   0.89   70.0    36    4.1    20    10.6   964.0    0.00 
 121   13:00   0.88   69.8    35    4.0    40     8.4   963.9    0.00 
 121   13:10   0.87   69.7    35    2.7   322     8.8   964.0    0.00 
 121   13:20   0.87   70.2    36    4.2   359    11.4   963.9    0.00 
 121   13:30   0.81   69.9    36    6.1   348    16.6   963.8    0.00 
 121   13:40   0.84   70.2    36    5.9   342    12.3   963.7    0.00 
 121   13:50   0.83   71.0    35    4.5     1    10.4   963.5    0.00 
 121   14:00   0.81   71.5    37    4.0    15     8.0   963.4    0.00 
 121   14:10   0.79   72.1    35    4.5   354    10.9   963.4    0.00 
 121   14:20   0.77   71.8    34    6.3   325    17.2   963.1    0.00 
 121   14:30   0.76   72.1    36    6.0   331    14.3   963.2    0.00 
 121   14:40   0.73   71.9    36    4.4   320    13.5   963.1    0.00 
 121   14:50   0.71   72.6    38    4.4   326     9.5   963.1    0.00 
 121   15:00   0.68   73.0    38    4.5   336    14.0   963.0    0.00 
 121   15:10   0.66   72.6    37    4.9     5    12.0   963.0    0.00 
 121   15:20   0.63   72.0    36    5.2     2    11.9   963.0    0.00 
 121   15:30   0.60   72.4    38    3.8   351    11.2   963.0    0.00 
 121   15:40   0.57   72.7    36    3.9     1     9.5   962.9    0.00 
 121   15:50   0.55   72.4    36    5.1     3    15.6   962.8    0.00 
 121   16:00   0.52   72.3    35    3.9   320    10.7   962.6    0.00 
 121   16:10   0.46   71.9    35    5.0   304    12.6   962.6    0.00 
 121   16:20   0.20   71.6    36    3.9   335     9.8   962.7    0.00 
 121   16:30   0.08   70.7    38    3.7   320    10.4   962.7    0.00 
 121   16:40   0.15   70.8    36    4.1   336    11.2   962.7    0.00 
 121   16:50   0.12   71.0    36    4.5   350    12.1   962.6    0.00 
 121   17:00   0.06   69.8    39    3.1   350     8.0   962.7    0.00 
 121   17:10   0.08   68.5    41    2.3   326     6.1   962.7    0.00 
 121   17:20   0.04   68.4    39    2.7   292     6.7   962.4    0.00 
 121   17:30   0.04   69.4    36    2.8   331     8.3   962.5    0.00 
 121   17:40   0.04   68.7    39    1.8   322     4.7   962.5    0.00 
 121   17:50   0.03   67.0    44    1.9   328     4.3   962.4    0.00 
 121   18:00   0.03   67.3    41    2.8   315     7.7   962.5    0.00 
 121   18:10   0.03   67.4    41    1.4   349     4.7   962.6    0.00 
 121   18:20   0.02   66.5    45    1.6   325     5.6   962.7    0.00 
 121   18:30   0.01   64.5    52    0.6   289     3.5   962.8    0.00 
 121   18:40   0.01   64.0    49    2.4   315     6.7   962.9    0.00 
 121   18:50   0.01   64.7    48    1.3   323     5.3   963.0    0.00 
 121   19:00   0.01   62.2    62    2.1    13     4.6   963.2    0.00 
 121   19:10   0.00   60.0    66    2.8    16     4.1   963.3    0.00 
 121   19:20   0.00   59.1    67    0.3   322     1.3   963.4    0.00 
 121   19:30   0.00   58.4    68    0.1   329     0.7   963.6    0.00 
 121   19:40   0.00   57.5    68    0.1   337     1.5   963.7    0.00 
 121   19:50   0.00   56.9    68    0.4    14     2.1   963.8    0.00 
 121   20:00   0.00   56.2    70    0.6   200     1.7   963.9    0.00 
 121   20:10   0.00   55.3    71    0.0     0     0.0   964.0    0.00 
 121   20:20   0.00   54.7    72    0.1   351     0.7   964.0    0.00 
 121   20:30   0.00   54.0    73    0.2   319     1.1   964.2    0.00 
 121   20:40   0.00   53.4    74    0.0   230     0.7   964.3    0.00 
 121   20:50   0.00   52.9    75    0.1   320     1.2   964.3    0.00 

Return to Angelo Coast Range Reserve graphs page.


Western Regional Climate Center,wrcc@dri.edu